sensor_id;sensor_type;location;lat;lon;timestamp;P1;durP1;ratioP1;P2;durP2;ratioP2
42000;SDS011;27689;48.390;10.856;2023-03-04T00:01:37;65.63;;;37.28;;
42000;SDS011;27689;48.390;10.856;2023-03-04T00:04:21;66.82;;;37.50;;
42000;SDS011;27689;48.390;10.856;2023-03-04T00:07:05;63.15;;;37.22;;
42000;SDS011;27689;48.390;10.856;2023-03-04T00:09:49;62.47;;;36.90;;
42000;SDS011;27689;48.390;10.856;2023-03-04T00:12:33;61.25;;;36.75;;
42000;SDS011;27689;48.390;10.856;2023-03-04T00:15:17;56.25;;;34.88;;
42000;SDS011;27689;48.390;10.856;2023-03-04T00:18:01;60.00;;;36.40;;
42000;SDS011;27689;48.390;10.856;2023-03-04T00:20:46;61.42;;;35.60;;
42000;SDS011;27689;48.390;10.856;2023-03-04T00:23:30;59.53;;;35.17;;
42000;SDS011;27689;48.390;10.856;2023-03-04T00:28:59;61.70;;;34.80;;
42000;SDS011;27689;48.390;10.856;2023-03-04T00:31:43;66.00;;;38.42;;
42000;SDS011;27689;48.390;10.856;2023-03-04T00:34:27;58.85;;;35.13;;
42000;SDS011;27689;48.390;10.856;2023-03-04T00:37:11;58.90;;;35.40;;
42000;SDS011;27689;48.390;10.856;2023-03-04T00:39:55;60.60;;;36.78;;
42000;SDS011;27689;48.390;10.856;2023-03-04T00:42:39;61.60;;;35.88;;
42000;SDS011;27689;48.390;10.856;2023-03-04T00:45:23;64.32;;;36.22;;
42000;SDS011;27689;48.390;10.856;2023-03-04T00:48:07;61.53;;;35.70;;
42000;SDS011;27689;48.390;10.856;2023-03-04T00:50:51;63.28;;;36.35;;
42000;SDS011;27689;48.390;10.856;2023-03-04T00:53:36;63.90;;;37.58;;
42000;SDS011;27689;48.390;10.856;2023-03-04T00:56:20;68.25;;;38.13;;
42000;SDS011;27689;48.390;10.856;2023-03-04T00:59:04;63.67;;;37.78;;
42000;SDS011;27689;48.390;10.856;2023-03-04T01:01:48;63.17;;;37.03;;
42000;SDS011;27689;48.390;10.856;2023-03-04T01:04:32;69.15;;;39.50;;
42000;SDS011;27689;48.390;10.856;2023-03-04T01:07:16;66.15;;;38.00;;
42000;SDS011;27689;48.390;10.856;2023-03-04T01:10:00;63.22;;;35.70;;
42000;SDS011;27689;48.390;10.856;2023-03-04T01:12:44;74.00;;;39.70;;
42000;SDS011;27689;48.390;10.856;2023-03-04T01:18:12;69.00;;;38.05;;
42000;SDS011;27689;48.390;10.856;2023-03-04T01:20:56;58.42;;;35.00;;
42000;SDS011;27689;48.390;10.856;2023-03-04T01:23:41;64.68;;;36.28;;
42000;SDS011;27689;48.390;10.856;2023-03-04T01:26:25;58.95;;;35.20;;
42000;SDS011;27689;48.390;10.856;2023-03-04T01:29:09;63.97;;;34.65;;
42000;SDS011;27689;48.390;10.856;2023-03-04T01:31:53;66.15;;;36.72;;
42000;SDS011;27689;48.390;10.856;2023-03-04T01:34:37;61.10;;;36.37;;
42000;SDS011;27689;48.390;10.856;2023-03-04T01:37:20;56.58;;;33.75;;
42000;SDS011;27689;48.390;10.856;2023-03-04T01:40:05;62.50;;;34.97;;
42000;SDS011;27689;48.390;10.856;2023-03-04T01:42:49;62.05;;;35.13;;
42000;SDS011;27689;48.390;10.856;2023-03-04T01:45:33;62.80;;;35.25;;
42000;SDS011;27689;48.390;10.856;2023-03-04T01:48:19;62.35;;;35.67;;
42000;SDS011;27689;48.390;10.856;2023-03-04T01:51:16;62.65;;;34.78;;
42000;SDS011;27689;48.390;10.856;2023-03-04T01:54:01;55.80;;;33.90;;
42000;SDS011;27689;48.390;10.856;2023-03-04T01:56:45;62.55;;;35.28;;
42000;SDS011;27689;48.390;10.856;2023-03-04T01:59:32;63.67;;;37.70;;
42000;SDS011;27689;48.390;10.856;2023-03-04T02:02:16;64.20;;;33.90;;
42000;SDS011;27689;48.390;10.856;2023-03-04T02:05:00;67.88;;;36.38;;
42000;SDS011;27689;48.390;10.856;2023-03-04T02:07:44;62.05;;;35.47;;
42000;SDS011;27689;48.390;10.856;2023-03-04T02:10:28;58.00;;;35.00;;
42000;SDS011;27689;48.390;10.856;2023-03-04T02:13:12;67.50;;;37.50;;
42000;SDS011;27689;48.390;10.856;2023-03-04T02:15:58;65.85;;;37.38;;
42000;SDS011;27689;48.390;10.856;2023-03-04T02:18:41;59.93;;;34.00;;
42000;SDS011;27689;48.390;10.856;2023-03-04T02:21:26;59.60;;;34.50;;
42000;SDS011;27689;48.390;10.856;2023-03-04T02:24:22;62.42;;;34.42;;
42000;SDS011;27689;48.390;10.856;2023-03-04T02:27:12;61.67;;;34.95;;
42000;SDS011;27689;48.390;10.856;2023-03-04T02:29:56;60.67;;;36.25;;
42000;SDS011;27689;48.390;10.856;2023-03-04T02:32:40;61.92;;;35.97;;
42000;SDS011;27689;48.390;10.856;2023-03-04T02:35:24;62.25;;;34.80;;
42000;SDS011;27689;48.390;10.856;2023-03-04T02:38:09;67.65;;;35.83;;
42000;SDS011;27689;48.390;10.856;2023-03-04T02:40:53;65.38;;;36.20;;
42000;SDS011;27689;48.390;10.856;2023-03-04T02:43:39;62.72;;;35.25;;
42000;SDS011;27689;48.390;10.856;2023-03-04T02:46:23;61.45;;;34.22;;
42000;SDS011;27689;48.390;10.856;2023-03-04T02:49:07;60.13;;;35.40;;
42000;SDS011;27689;48.390;10.856;2023-03-04T02:51:52;65.47;;;36.90;;
42000;SDS011;27689;48.390;10.856;2023-03-04T02:54:41;63.55;;;34.70;;
42000;SDS011;27689;48.390;10.856;2023-03-04T02:57:25;60.28;;;34.95;;
42000;SDS011;27689;48.390;10.856;2023-03-04T03:00:09;61.53;;;36.75;;
42000;SDS011;27689;48.390;10.856;2023-03-04T03:02:53;58.47;;;34.53;;
42000;SDS011;27689;48.390;10.856;2023-03-04T03:05:39;64.15;;;35.88;;
42000;SDS011;27689;48.390;10.856;2023-03-04T03:11:07;57.65;;;35.65;;
42000;SDS011;27689;48.390;10.856;2023-03-04T03:13:51;62.17;;;35.33;;
42000;SDS011;27689;48.390;10.856;2023-03-04T03:16:35;65.13;;;35.25;;
42000;SDS011;27689;48.390;10.856;2023-03-04T03:19:19;61.70;;;35.17;;
42000;SDS011;27689;48.390;10.856;2023-03-04T03:22:03;59.00;;;34.13;;
42000;SDS011;27689;48.390;10.856;2023-03-04T03:27:32;58.53;;;33.45;;
42000;SDS011;27689;48.390;10.856;2023-03-04T03:30:16;61.58;;;35.35;;
42000;SDS011;27689;48.390;10.856;2023-03-04T03:33:00;60.80;;;35.35;;
42000;SDS011;27689;48.390;10.856;2023-03-04T03:35:44;60.97;;;35.45;;
42000;SDS011;27689;48.390;10.856;2023-03-04T03:38:28;61.10;;;36.08;;
42000;SDS011;27689;48.390;10.856;2023-03-04T03:41:12;59.63;;;35.40;;
42000;SDS011;27689;48.390;10.856;2023-03-04T03:43:56;62.78;;;34.97;;
42000;SDS011;27689;48.390;10.856;2023-03-04T03:46:40;63.78;;;34.33;;
42000;SDS011;27689;48.390;10.856;2023-03-04T03:49:24;61.70;;;35.70;;
42000;SDS011;27689;48.390;10.856;2023-03-04T03:52:08;61.60;;;35.38;;
42000;SDS011;27689;48.390;10.856;2023-03-04T03:54:52;62.30;;;35.40;;
42000;SDS011;27689;48.390;10.856;2023-03-04T03:57:36;59.28;;;34.15;;
42000;SDS011;27689;48.390;10.856;2023-03-04T04:00:20;59.25;;;34.08;;
42000;SDS011;27689;48.390;10.856;2023-03-04T04:03:04;61.85;;;35.33;;
42000;SDS011;27689;48.390;10.856;2023-03-04T04:05:48;59.60;;;35.42;;
42000;SDS011;27689;48.390;10.856;2023-03-04T04:08:32;64.65;;;37.30;;
42000;SDS011;27689;48.390;10.856;2023-03-04T04:11:16;65.20;;;37.55;;
42000;SDS011;27689;48.390;10.856;2023-03-04T04:14:00;66.80;;;40.28;;
42000;SDS011;27689;48.390;10.856;2023-03-04T04:16:44;63.30;;;36.85;;
42000;SDS011;27689;48.390;10.856;2023-03-04T04:19:29;69.03;;;37.05;;
42000;SDS011;27689;48.390;10.856;2023-03-04T04:22:14;65.53;;;38.03;;
42000;SDS011;27689;48.390;10.856;2023-03-04T04:25:00;63.42;;;35.55;;
42000;SDS011;27689;48.390;10.856;2023-03-04T04:27:44;65.38;;;37.33;;
42000;SDS011;27689;48.390;10.856;2023-03-04T04:30:28;64.65;;;37.97;;
42000;SDS011;27689;48.390;10.856;2023-03-04T04:33:12;65.22;;;37.25;;
42000;SDS011;27689;48.390;10.856;2023-03-04T04:35:56;61.97;;;35.60;;
42000;SDS011;27689;48.390;10.856;2023-03-04T04:38:40;69.72;;;38.08;;
42000;SDS011;27689;48.390;10.856;2023-03-04T04:41:25;69.65;;;39.17;;
42000;SDS011;27689;48.390;10.856;2023-03-04T04:44:14;70.38;;;38.17;;
42000;SDS011;27689;48.390;10.856;2023-03-04T04:46:58;65.50;;;36.53;;
42000;SDS011;27689;48.390;10.856;2023-03-04T04:49:43;64.57;;;37.45;;
42000;SDS011;27689;48.390;10.856;2023-03-04T04:52:27;70.53;;;38.60;;
42000;SDS011;27689;48.390;10.856;2023-03-04T04:55:11;66.88;;;38.15;;
42000;SDS011;27689;48.390;10.856;2023-03-04T04:57:55;67.72;;;38.22;;
42000;SDS011;27689;48.390;10.856;2023-03-04T05:00:39;68.05;;;39.35;;
42000;SDS011;27689;48.390;10.856;2023-03-04T05:03:23;71.97;;;40.47;;
42000;SDS011;27689;48.390;10.856;2023-03-04T05:06:07;60.80;;;36.47;;
42000;SDS011;27689;48.390;10.856;2023-03-04T05:08:53;59.65;;;35.22;;
42000;SDS011;27689;48.390;10.856;2023-03-04T05:11:37;62.80;;;36.03;;
42000;SDS011;27689;48.390;10.856;2023-03-04T05:14:20;58.40;;;34.95;;
42000;SDS011;27689;48.390;10.856;2023-03-04T05:17:04;61.97;;;35.15;;
42000;SDS011;27689;48.390;10.856;2023-03-04T05:19:48;63.83;;;36.25;;
42000;SDS011;27689;48.390;10.856;2023-03-04T05:22:33;61.72;;;36.45;;
42000;SDS011;27689;48.390;10.856;2023-03-04T05:25:17;64.45;;;37.28;;
42000;SDS011;27689;48.390;10.856;2023-03-04T05:28:01;65.30;;;36.15;;
42000;SDS011;27689;48.390;10.856;2023-03-04T05:30:47;71.50;;;39.55;;
42000;SDS011;27689;48.390;10.856;2023-03-04T05:33:31;67.65;;;38.13;;
42000;SDS011;27689;48.390;10.856;2023-03-04T05:36:15;64.95;;;37.30;;
42000;SDS011;27689;48.390;10.856;2023-03-04T05:38:59;70.57;;;38.20;;
42000;SDS011;27689;48.390;10.856;2023-03-04T05:41:43;67.70;;;36.78;;
42000;SDS011;27689;48.390;10.856;2023-03-04T05:44:27;66.63;;;37.63;;
42000;SDS011;27689;48.390;10.856;2023-03-04T05:47:11;65.60;;;36.28;;
42000;SDS011;27689;48.390;10.856;2023-03-04T05:49:54;63.78;;;37.50;;
42000;SDS011;27689;48.390;10.856;2023-03-04T05:52:40;70.10;;;37.05;;
42000;SDS011;27689;48.390;10.856;2023-03-04T05:55:24;66.63;;;36.80;;
42000;SDS011;27689;48.390;10.856;2023-03-04T05:58:09;62.97;;;35.25;;
42000;SDS011;27689;48.390;10.856;2023-03-04T06:00:53;64.68;;;37.05;;
42000;SDS011;27689;48.390;10.856;2023-03-04T06:03:37;64.17;;;36.67;;
42000;SDS011;27689;48.390;10.856;2023-03-04T06:06:21;73.07;;;40.38;;
42000;SDS011;27689;48.390;10.856;2023-03-04T06:09:05;66.93;;;37.88;;
42000;SDS011;27689;48.390;10.856;2023-03-04T06:11:49;66.18;;;36.95;;
42000;SDS011;27689;48.390;10.856;2023-03-04T06:14:33;66.70;;;37.05;;
42000;SDS011;27689;48.390;10.856;2023-03-04T06:17:17;62.17;;;37.05;;
42000;SDS011;27689;48.390;10.856;2023-03-04T06:20:00;69.30;;;38.40;;
42000;SDS011;27689;48.390;10.856;2023-03-04T06:22:44;67.15;;;37.58;;
42000;SDS011;27689;48.390;10.856;2023-03-04T06:25:28;71.60;;;41.40;;
42000;SDS011;27689;48.390;10.856;2023-03-04T06:28:12;66.95;;;39.58;;
42000;SDS011;27689;48.390;10.856;2023-03-04T06:30:57;70.65;;;40.10;;
42000;SDS011;27689;48.390;10.856;2023-03-04T06:33:41;68.50;;;37.13;;
42000;SDS011;27689;48.390;10.856;2023-03-04T06:36:25;71.35;;;39.15;;
42000;SDS011;27689;48.390;10.856;2023-03-04T06:39:17;70.47;;;40.10;;
42000;SDS011;27689;48.390;10.856;2023-03-04T06:42:00;74.78;;;40.65;;
42000;SDS011;27689;48.390;10.856;2023-03-04T06:44:45;77.30;;;43.42;;
42000;SDS011;27689;48.390;10.856;2023-03-04T06:47:29;77.03;;;43.22;;
42000;SDS011;27689;48.390;10.856;2023-03-04T06:50:12;75.38;;;43.30;;
42000;SDS011;27689;48.390;10.856;2023-03-04T06:52:56;78.82;;;43.90;;
42000;SDS011;27689;48.390;10.856;2023-03-04T06:55:40;77.45;;;43.85;;
42000;SDS011;27689;48.390;10.856;2023-03-04T06:58:24;78.63;;;43.83;;
42000;SDS011;27689;48.390;10.856;2023-03-04T07:01:18;86.10;;;45.65;;
42000;SDS011;27689;48.390;10.856;2023-03-04T07:04:05;84.72;;;43.63;;
42000;SDS011;27689;48.390;10.856;2023-03-04T07:06:49;85.45;;;46.80;;
42000;SDS011;27689;48.390;10.856;2023-03-04T07:09:34;80.38;;;45.85;;
42000;SDS011;27689;48.390;10.856;2023-03-04T07:12:17;81.65;;;44.17;;
42000;SDS011;27689;48.390;10.856;2023-03-04T07:15:01;82.18;;;44.35;;
42000;SDS011;27689;48.390;10.856;2023-03-04T07:17:46;80.85;;;46.13;;
42000;SDS011;27689;48.390;10.856;2023-03-04T07:20:30;79.78;;;44.35;;
42000;SDS011;27689;48.390;10.856;2023-03-04T07:23:14;76.57;;;45.13;;
42000;SDS011;27689;48.390;10.856;2023-03-04T07:25:58;79.63;;;44.70;;
42000;SDS011;27689;48.390;10.856;2023-03-04T07:28:42;79.35;;;45.38;;
42000;SDS011;27689;48.390;10.856;2023-03-04T07:31:27;77.45;;;44.47;;
42000;SDS011;27689;48.390;10.856;2023-03-04T07:34:14;81.57;;;46.10;;
42000;SDS011;27689;48.390;10.856;2023-03-04T07:36:58;81.10;;;46.10;;
42000;SDS011;27689;48.390;10.856;2023-03-04T07:39:42;81.57;;;45.67;;
42000;SDS011;27689;48.390;10.856;2023-03-04T07:42:26;74.70;;;43.55;;
42000;SDS011;27689;48.390;10.856;2023-03-04T07:45:10;76.28;;;45.08;;
42000;SDS011;27689;48.390;10.856;2023-03-04T07:50:38;73.05;;;40.40;;
42000;SDS011;27689;48.390;10.856;2023-03-04T07:53:22;78.03;;;44.28;;
42000;SDS011;27689;48.390;10.856;2023-03-04T07:56:07;77.30;;;43.85;;
42000;SDS011;27689;48.390;10.856;2023-03-04T07:58:55;77.00;;;42.95;;
42000;SDS011;27689;48.390;10.856;2023-03-04T08:01:39;75.97;;;43.30;;
42000;SDS011;27689;48.390;10.856;2023-03-04T08:04:23;71.28;;;42.65;;
42000;SDS011;27689;48.390;10.856;2023-03-04T08:07:07;68.65;;;39.40;;
42000;SDS011;27689;48.390;10.856;2023-03-04T08:09:51;68.43;;;40.53;;
42000;SDS011;27689;48.390;10.856;2023-03-04T08:12:35;70.18;;;40.38;;
42000;SDS011;27689;48.390;10.856;2023-03-04T08:15:19;68.80;;;40.03;;
42000;SDS011;27689;48.390;10.856;2023-03-04T08:18:02;71.83;;;40.57;;
42000;SDS011;27689;48.390;10.856;2023-03-04T08:20:46;66.43;;;40.10;;
42000;SDS011;27689;48.390;10.856;2023-03-04T08:23:30;66.95;;;41.13;;
42000;SDS011;27689;48.390;10.856;2023-03-04T08:26:19;68.93;;;39.58;;
42000;SDS011;27689;48.390;10.856;2023-03-04T08:29:06;68.45;;;38.40;;
42000;SDS011;27689;48.390;10.856;2023-03-04T08:31:51;62.58;;;37.35;;
42000;SDS011;27689;48.390;10.856;2023-03-04T08:34:37;66.40;;;38.42;;
42000;SDS011;27689;48.390;10.856;2023-03-04T08:37:22;60.40;;;35.05;;
42000;SDS011;27689;48.390;10.856;2023-03-04T08:40:06;55.30;;;33.83;;
42000;SDS011;27689;48.390;10.856;2023-03-04T08:42:51;55.17;;;32.75;;
42000;SDS011;27689;48.390;10.856;2023-03-04T08:45:35;52.28;;;32.65;;
42000;SDS011;27689;48.390;10.856;2023-03-04T08:48:19;47.85;;;29.05;;
42000;SDS011;27689;48.390;10.856;2023-03-04T08:51:13;44.25;;;26.50;;
42000;SDS011;27689;48.390;10.856;2023-03-04T08:54:00;40.42;;;25.40;;
42000;SDS011;27689;48.390;10.856;2023-03-04T08:56:45;42.90;;;25.98;;
42000;SDS011;27689;48.390;10.856;2023-03-04T08:59:29;47.27;;;27.47;;
42000;SDS011;27689;48.390;10.856;2023-03-04T09:02:13;41.83;;;26.83;;
42000;SDS011;27689;48.390;10.856;2023-03-04T09:04:57;46.93;;;26.83;;
42000;SDS011;27689;48.390;10.856;2023-03-04T09:07:40;44.77;;;26.67;;
42000;SDS011;27689;48.390;10.856;2023-03-04T09:10:25;41.72;;;25.02;;
42000;SDS011;27689;48.390;10.856;2023-03-04T09:13:09;38.03;;;21.90;;
42000;SDS011;27689;48.390;10.856;2023-03-04T09:15:54;36.90;;;22.33;;
42000;SDS011;27689;48.390;10.856;2023-03-04T09:18:38;34.03;;;19.95;;
42000;SDS011;27689;48.390;10.856;2023-03-04T09:21:23;35.22;;;22.77;;
42000;SDS011;27689;48.390;10.856;2023-03-04T09:24:07;34.27;;;21.33;;
42000;SDS011;27689;48.390;10.856;2023-03-04T09:26:51;34.03;;;19.65;;
42000;SDS011;27689;48.390;10.856;2023-03-04T09:29:36;33.97;;;21.25;;
42000;SDS011;27689;48.390;10.856;2023-03-04T09:32:20;32.83;;;20.10;;
42000;SDS011;27689;48.390;10.856;2023-03-04T09:35:04;35.17;;;21.38;;
42000;SDS011;27689;48.390;10.856;2023-03-04T09:37:49;34.45;;;20.67;;
42000;SDS011;27689;48.390;10.856;2023-03-04T09:40:38;36.17;;;21.50;;
42000;SDS011;27689;48.390;10.856;2023-03-04T09:43:26;32.28;;;21.60;;
42000;SDS011;27689;48.390;10.856;2023-03-04T09:46:15;34.10;;;22.17;;
42000;SDS011;27689;48.390;10.856;2023-03-04T09:49:05;34.33;;;21.50;;
42000;SDS011;27689;48.390;10.856;2023-03-04T09:51:51;37.83;;;22.77;;
42000;SDS011;27689;48.390;10.856;2023-03-04T10:00:41;33.53;;;21.67;;
42000;SDS011;27689;48.390;10.856;2023-03-04T10:03:31;31.23;;;21.02;;
42000;SDS011;27689;48.390;10.856;2023-03-04T10:06:26;34.72;;;22.02;;
42000;SDS011;27689;48.390;10.856;2023-03-04T10:09:11;35.33;;;21.15;;
42000;SDS011;27689;48.390;10.856;2023-03-04T10:12:03;35.70;;;20.73;;
42000;SDS011;27689;48.390;10.856;2023-03-04T10:14:58;30.13;;;19.70;;
42000;SDS011;27689;48.390;10.856;2023-03-04T10:17:46;29.92;;;19.25;;
42000;SDS011;27689;48.390;10.856;2023-03-04T10:20:58;33.53;;;20.98;;
42000;SDS011;27689;48.390;10.856;2023-03-04T10:23:43;31.77;;;19.27;;
42000;SDS011;27689;48.390;10.856;2023-03-04T10:26:28;33.08;;;19.90;;
42000;SDS011;27689;48.390;10.856;2023-03-04T10:29:16;31.40;;;19.17;;
42000;SDS011;27689;48.390;10.856;2023-03-04T10:32:02;30.17;;;18.75;;
42000;SDS011;27689;48.390;10.856;2023-03-04T10:34:46;29.80;;;18.05;;
42000;SDS011;27689;48.390;10.856;2023-03-04T10:37:44;35.35;;;19.48;;
42000;SDS011;27689;48.390;10.856;2023-03-04T10:40:36;27.15;;;17.98;;
42000;SDS011;27689;48.390;10.856;2023-03-04T10:43:22;31.95;;;19.00;;
42000;SDS011;27689;48.390;10.856;2023-03-04T10:46:06;30.30;;;18.42;;
42000;SDS011;27689;48.390;10.856;2023-03-04T10:48:53;28.42;;;17.52;;
42000;SDS011;27689;48.390;10.856;2023-03-04T10:51:44;32.30;;;19.30;;
42000;SDS011;27689;48.390;10.856;2023-03-04T10:57:35;28.10;;;17.30;;
42000;SDS011;27689;48.390;10.856;2023-03-04T11:00:32;27.77;;;17.38;;
42000;SDS011;27689;48.390;10.856;2023-03-04T11:03:22;32.15;;;17.95;;
42000;SDS011;27689;48.390;10.856;2023-03-04T11:06:19;26.00;;;17.40;;
42000;SDS011;27689;48.390;10.856;2023-03-04T11:09:05;29.98;;;17.83;;
42000;SDS011;27689;48.390;10.856;2023-03-04T11:11:50;29.17;;;17.63;;
42000;SDS011;27689;48.390;10.856;2023-03-04T11:14:40;28.17;;;17.65;;
42000;SDS011;27689;48.390;10.856;2023-03-04T11:17:41;26.35;;;16.42;;
42000;SDS011;27689;48.390;10.856;2023-03-04T11:20:30;28.40;;;16.45;;
42000;SDS011;27689;48.390;10.856;2023-03-04T11:23:17;27.80;;;16.98;;
42000;SDS011;27689;48.390;10.856;2023-03-04T11:26:13;29.77;;;17.42;;
42000;SDS011;27689;48.390;10.856;2023-03-04T11:29:13;27.52;;;17.08;;
42000;SDS011;27689;48.390;10.856;2023-03-04T11:32:21;29.85;;;16.98;;
42000;SDS011;27689;48.390;10.856;2023-03-04T11:35:12;26.48;;;17.38;;
42000;SDS011;27689;48.390;10.856;2023-03-04T11:38:07;32.00;;;18.63;;
42000;SDS011;27689;48.390;10.856;2023-03-04T11:41:02;31.05;;;17.42;;
42000;SDS011;27689;48.390;10.856;2023-03-04T11:43:53;28.77;;;17.27;;
42000;SDS011;27689;48.390;10.856;2023-03-04T11:53:03;29.20;;;17.40;;
42000;SDS011;27689;48.390;10.856;2023-03-04T11:56:09;26.25;;;17.27;;
42000;SDS011;27689;48.390;10.856;2023-03-04T12:08:24;25.35;;;16.13;;
42000;SDS011;27689;48.390;10.856;2023-03-04T12:11:41;26.90;;;16.55;;
42000;SDS011;27689;48.390;10.856;2023-03-04T12:26:37;26.70;;;15.80;;
42000;SDS011;27689;48.390;10.856;2023-03-04T12:38:53;25.30;;;16.23;;
42000;SDS011;27689;48.390;10.856;2023-03-04T12:41:56;25.20;;;15.98;;
42000;SDS011;27689;48.390;10.856;2023-03-04T12:48:39;23.67;;;14.95;;
42000;SDS011;27689;48.390;10.856;2023-03-04T12:51:28;26.38;;;16.13;;
42000;SDS011;27689;48.390;10.856;2023-03-04T12:54:28;24.42;;;15.38;;
42000;SDS011;27689;48.390;10.856;2023-03-04T12:57:17;25.88;;;15.15;;
42000;SDS011;27689;48.390;10.856;2023-03-04T13:17:53;25.08;;;15.18;;
42000;SDS011;27689;48.390;10.856;2023-03-04T13:20:39;27.08;;;16.38;;
42000;SDS011;27689;48.390;10.856;2023-03-04T13:23:26;24.75;;;15.38;;
42000;SDS011;27689;48.390;10.856;2023-03-04T13:26:28;24.88;;;14.88;;
42000;SDS011;27689;48.390;10.856;2023-03-04T13:32:03;26.30;;;16.58;;
42000;SDS011;27689;48.390;10.856;2023-03-04T13:34:52;26.33;;;15.63;;
42000;SDS011;27689;48.390;10.856;2023-03-04T13:37:40;26.13;;;16.65;;
42000;SDS011;27689;48.390;10.856;2023-03-04T13:40:41;24.02;;;14.98;;
42000;SDS011;27689;48.390;10.856;2023-03-04T13:49:18;28.10;;;16.58;;
42000;SDS011;27689;48.390;10.856;2023-03-04T13:58:25;26.42;;;16.30;;
42000;SDS011;27689;48.390;10.856;2023-03-04T14:01:26;28.00;;;17.13;;
42000;SDS011;27689;48.390;10.856;2023-03-04T14:06:59;27.60;;;16.70;;
42000;SDS011;27689;48.390;10.856;2023-03-04T14:09:55;26.48;;;16.17;;
42000;SDS011;27689;48.390;10.856;2023-03-04T14:12:56;24.75;;;16.98;;
42000;SDS011;27689;48.390;10.856;2023-03-04T14:15:43;24.85;;;15.98;;
42000;SDS011;27689;48.390;10.856;2023-03-04T14:18:37;27.83;;;16.67;;
42000;SDS011;27689;48.390;10.856;2023-03-04T14:21:22;27.48;;;16.38;;
42000;SDS011;27689;48.390;10.856;2023-03-04T14:24:09;28.63;;;17.15;;
42000;SDS011;27689;48.390;10.856;2023-03-04T14:27:05;25.15;;;15.25;;
42000;SDS011;27689;48.390;10.856;2023-03-04T14:29:55;25.42;;;15.23;;
42000;SDS011;27689;48.390;10.856;2023-03-04T14:32:40;25.77;;;16.95;;
42000;SDS011;27689;48.390;10.856;2023-03-04T14:35:29;25.08;;;16.55;;
42000;SDS011;27689;48.390;10.856;2023-03-04T14:38:25;24.05;;;15.02;;
42000;SDS011;27689;48.390;10.856;2023-03-04T14:41:46;23.95;;;15.93;;
42000;SDS011;27689;48.390;10.856;2023-03-04T14:44:36;26.73;;;15.93;;
42000;SDS011;27689;48.390;10.856;2023-03-04T14:47:36;22.55;;;15.23;;
42000;SDS011;27689;48.390;10.856;2023-03-04T14:50:24;24.73;;;15.98;;
42000;SDS011;27689;48.390;10.856;2023-03-04T14:56:05;24.83;;;16.10;;
42000;SDS011;27689;48.390;10.856;2023-03-04T14:58:52;25.58;;;16.30;;
42000;SDS011;27689;48.390;10.856;2023-03-04T15:01:38;27.25;;;17.13;;
42000;SDS011;27689;48.390;10.856;2023-03-04T15:04:22;29.85;;;17.40;;
42000;SDS011;27689;48.390;10.856;2023-03-04T15:07:11;28.50;;;17.50;;
42000;SDS011;27689;48.390;10.856;2023-03-04T15:09:58;30.17;;;17.65;;
42000;SDS011;27689;48.390;10.856;2023-03-04T15:12:49;29.33;;;17.33;;
42000;SDS011;27689;48.390;10.856;2023-03-04T15:15:42;28.90;;;16.83;;
42000;SDS011;27689;48.390;10.856;2023-03-04T15:18:28;28.77;;;17.02;;
42000;SDS011;27689;48.390;10.856;2023-03-04T15:24:03;30.65;;;16.98;;
42000;SDS011;27689;48.390;10.856;2023-03-04T15:26:48;29.17;;;17.67;;
42000;SDS011;27689;48.390;10.856;2023-03-04T15:29:33;31.30;;;17.42;;
42000;SDS011;27689;48.390;10.856;2023-03-04T15:32:16;30.48;;;17.80;;
42000;SDS011;27689;48.390;10.856;2023-03-04T15:35:01;28.90;;;17.70;;
42000;SDS011;27689;48.390;10.856;2023-03-04T15:37:45;30.40;;;17.65;;
42000;SDS011;27689;48.390;10.856;2023-03-04T15:40:31;30.58;;;18.10;;
42000;SDS011;27689;48.390;10.856;2023-03-04T15:43:19;28.13;;;17.70;;
42000;SDS011;27689;48.390;10.856;2023-03-04T15:46:04;27.02;;;16.42;;
42000;SDS011;27689;48.390;10.856;2023-03-04T15:48:48;29.50;;;17.30;;
42000;SDS011;27689;48.390;10.856;2023-03-04T15:51:32;29.48;;;19.00;;
42000;SDS011;27689;48.390;10.856;2023-03-04T15:54:16;29.02;;;18.15;;
42000;SDS011;27689;48.390;10.856;2023-03-04T15:57:00;29.92;;;17.30;;
42000;SDS011;27689;48.390;10.856;2023-03-04T15:59:45;31.33;;;18.30;;
42000;SDS011;27689;48.390;10.856;2023-03-04T16:02:29;30.45;;;17.95;;
42000;SDS011;27689;48.390;10.856;2023-03-04T16:05:14;35.00;;;19.35;;
42000;SDS011;27689;48.390;10.856;2023-03-04T16:07:58;35.47;;;20.50;;
42000;SDS011;27689;48.390;10.856;2023-03-04T16:10:42;32.47;;;18.05;;
42000;SDS011;27689;48.390;10.856;2023-03-04T16:13:26;29.48;;;18.42;;
42000;SDS011;27689;48.390;10.856;2023-03-04T16:16:11;32.20;;;19.05;;
42000;SDS011;27689;48.390;10.856;2023-03-04T16:21:39;31.55;;;18.05;;
42000;SDS011;27689;48.390;10.856;2023-03-04T16:24:23;32.75;;;18.52;;
42000;SDS011;27689;48.390;10.856;2023-03-04T16:27:10;29.67;;;18.00;;
42000;SDS011;27689;48.390;10.856;2023-03-04T16:29:57;26.98;;;17.38;;
42000;SDS011;27689;48.390;10.856;2023-03-04T16:32:41;30.77;;;18.50;;
42000;SDS011;27689;48.390;10.856;2023-03-04T16:41:04;29.10;;;17.88;;
42000;SDS011;27689;48.390;10.856;2023-03-04T16:43:52;30.67;;;18.60;;
42000;SDS011;27689;48.390;10.856;2023-03-04T16:46:36;31.33;;;18.33;;
42000;SDS011;27689;48.390;10.856;2023-03-04T16:49:20;30.65;;;18.63;;
42000;SDS011;27689;48.390;10.856;2023-03-04T16:52:04;31.00;;;18.25;;
42000;SDS011;27689;48.390;10.856;2023-03-04T16:54:50;32.17;;;20.27;;
42000;SDS011;27689;48.390;10.856;2023-03-04T16:57:35;26.77;;;18.77;;
42000;SDS011;27689;48.390;10.856;2023-03-04T17:00:19;31.17;;;19.63;;
42000;SDS011;27689;48.390;10.856;2023-03-04T17:03:05;27.50;;;17.58;;
42000;SDS011;27689;48.390;10.856;2023-03-04T17:05:49;32.03;;;19.17;;
42000;SDS011;27689;48.390;10.856;2023-03-04T17:08:33;32.90;;;18.67;;
42000;SDS011;27689;48.390;10.856;2023-03-04T17:11:18;31.45;;;20.80;;
42000;SDS011;27689;48.390;10.856;2023-03-04T17:14:04;32.80;;;19.95;;
42000;SDS011;27689;48.390;10.856;2023-03-04T17:16:48;31.33;;;19.42;;
42000;SDS011;27689;48.390;10.856;2023-03-04T17:19:32;33.58;;;20.52;;
42000;SDS011;27689;48.390;10.856;2023-03-04T17:22:16;32.22;;;21.17;;
42000;SDS011;27689;48.390;10.856;2023-03-04T17:25:00;31.65;;;19.00;;
42000;SDS011;27689;48.390;10.856;2023-03-04T17:27:45;30.65;;;19.40;;
42000;SDS011;27689;48.390;10.856;2023-03-04T17:30:29;33.28;;;19.27;;
42000;SDS011;27689;48.390;10.856;2023-03-04T17:33:14;27.70;;;19.52;;
42000;SDS011;27689;48.390;10.856;2023-03-04T17:35:58;28.95;;;19.02;;
42000;SDS011;27689;48.390;10.856;2023-03-04T17:38:42;34.33;;;19.73;;
42000;SDS011;27689;48.390;10.856;2023-03-04T17:41:27;31.52;;;19.98;;
42000;SDS011;27689;48.390;10.856;2023-03-04T17:44:11;29.90;;;19.38;;
42000;SDS011;27689;48.390;10.856;2023-03-04T17:46:56;32.22;;;19.35;;
42000;SDS011;27689;48.390;10.856;2023-03-04T17:49:40;30.75;;;19.77;;
42000;SDS011;27689;48.390;10.856;2023-03-04T17:52:24;34.55;;;22.00;;